createdAt,value
2018-08-22T00:01:52.311Z,64.80
2018-08-22T00:04:19.642Z,64.90
2018-08-22T00:06:46.976Z,65.20
2018-08-22T00:09:14.297Z,65.40
2018-08-22T00:11:41.653Z,65.70
2018-08-22T00:14:08.975Z,65.90
2018-08-22T00:16:36.303Z,66.30
2018-08-22T00:19:03.636Z,66.70
2018-08-22T00:21:30.976Z,66.50
2018-08-22T00:23:58.276Z,66.70
2018-08-22T00:26:25.612Z,66.80
2018-08-22T00:28:52.971Z,67.20
2018-08-22T00:31:20.285Z,66.60
2018-08-22T00:33:47.610Z,66.80
2018-08-22T00:36:14.975Z,67.00
2018-08-22T00:38:42.256Z,66.90
2018-08-22T00:41:09.578Z,67.10
2018-08-22T00:43:36.895Z,67.10
2018-08-22T00:46:04.220Z,67.50
2018-08-22T00:48:31.523Z,67.40
2018-08-22T00:50:58.825Z,66.90
2018-08-22T00:53:26.187Z,67.20
2018-08-22T00:55:53.491Z,67.50
2018-08-22T00:58:20.809Z,67.30
2018-08-22T01:00:48.174Z,67.40
2018-08-22T01:03:15.485Z,67.20
2018-08-22T01:05:42.811Z,67.70
2018-08-22T01:08:10.115Z,67.70
2018-08-22T01:10:37.439Z,67.90
2018-08-22T01:13:04.817Z,67.60
2018-08-22T01:15:32.119Z,67.40
2018-08-22T01:17:59.462Z,67.60
2018-08-22T01:20:27.319Z,67.90
2018-08-22T01:22:54.637Z,68.30
2018-08-22T01:25:21.948Z,68.70
2018-08-22T01:27:49.265Z,68.90
2018-08-22T01:30:16.611Z,68.90
2018-08-22T01:32:43.918Z,68.90
2018-08-22T01:35:11.311Z,68.60
2018-08-22T01:37:38.647Z,68.90
2018-08-22T01:40:05.957Z,69.00
2018-08-22T01:42:33.307Z,68.90
2018-08-22T01:45:00.604Z,68.80
2018-08-22T01:47:27.915Z,68.60
2018-08-22T01:49:55.216Z,69.10
2018-08-22T01:52:22.521Z,69.30
2018-08-22T01:54:49.824Z,69.50
2018-08-22T01:57:17.346Z,69.70
2018-08-22T01:59:44.656Z,69.70
2018-08-22T02:02:11.955Z,69.40
2018-08-22T02:04:39.294Z,69.50
2018-08-22T02:07:06.651Z,69.90
2018-08-22T02:09:34.036Z,69.90
2018-08-22T02:12:01.401Z,70.10
2018-08-22T02:14:28.712Z,70.20
2018-08-22T02:16:56.023Z,69.90
2018-08-22T02:19:23.337Z,69.80
2018-08-22T02:21:50.683Z,69.70
2018-08-22T02:24:17.953Z,70.00
2018-08-22T02:26:45.266Z,69.90
2018-08-22T02:29:12.567Z,70.20
2018-08-22T02:31:39.887Z,70.20
2018-08-22T02:34:07.227Z,70.30
2018-08-22T02:36:34.583Z,70.30
2018-08-22T02:39:01.891Z,70.50
2018-08-22T02:41:29.195Z,70.10
2018-08-22T02:43:56.519Z,70.10
2018-08-22T02:46:23.831Z,70.40
2018-08-22T02:48:51.127Z,70.40
2018-08-22T02:51:18.439Z,70.70
2018-08-22T02:53:45.739Z,70.80
2018-08-22T02:56:13.041Z,70.90
2018-08-22T02:58:40.350Z,71.00
2018-08-22T03:01:07.659Z,71.50
2018-08-22T03:03:34.982Z,71.50
2018-08-22T03:06:02.301Z,71.30
2018-08-22T03:08:29.608Z,71.50
2018-08-22T03:10:56.933Z,70.90
2018-08-22T03:13:24.266Z,71.30
2018-08-22T03:15:51.575Z,70.50
2018-08-22T03:18:18.987Z,70.80
2018-08-22T03:20:46.279Z,71.30
2018-08-22T03:23:13.602Z,71.20
2018-08-22T03:25:40.903Z,71.50
2018-08-22T03:28:08.236Z,71.90
2018-08-22T03:30:35.579Z,71.80
2018-08-22T03:33:02.871Z,71.90
2018-08-22T03:35:30.166Z,71.60
2018-08-22T03:37:57.812Z,71.80
2018-08-22T03:40:25.114Z,71.80
2018-08-22T03:42:52.458Z,72.10
2018-08-22T03:45:19.750Z,71.90
2018-08-22T03:47:47.074Z,71.70
2018-08-22T03:50:14.382Z,71.90
2018-08-22T03:52:41.690Z,71.60
2018-08-22T03:55:09.007Z,71.80
2018-08-22T03:57:36.336Z,72.30
2018-08-22T04:00:03.934Z,72.00
2018-08-22T04:02:31.251Z,72.30
2018-08-22T04:04:58.561Z,72.30
2018-08-22T04:07:25.919Z,72.20
2018-08-22T04:09:53.219Z,72.40
2018-08-22T04:12:20.508Z,72.30
2018-08-22T04:14:47.819Z,73.00
2018-08-22T04:17:15.113Z,73.10
2018-08-22T04:19:42.450Z,73.20
2018-08-22T04:22:09.786Z,73.60
2018-08-22T04:24:37.114Z,73.50
2018-08-22T04:27:04.462Z,72.90
2018-08-22T04:29:31.764Z,72.80
2018-08-22T04:31:59.097Z,73.10
2018-08-22T04:34:26.422Z,73.70
2018-08-22T04:36:53.719Z,74.00
2018-08-22T04:39:21.034Z,73.60
2018-08-22T04:41:48.350Z,73.80
2018-08-22T04:44:15.699Z,73.50
2018-08-22T04:46:43.098Z,72.90
2018-08-22T04:49:10.395Z,73.30
2018-08-22T04:51:37.875Z,73.70
2018-08-22T04:54:05.240Z,73.70
2018-08-22T04:56:32.574Z,73.50
2018-08-22T04:58:59.876Z,73.60
2018-08-22T05:01:27.181Z,73.60
2018-08-22T05:03:54.480Z,73.70
2018-08-22T05:06:21.791Z,73.60
2018-08-22T05:08:49.097Z,74.00
2018-08-22T05:11:16.414Z,73.80
2018-08-22T05:13:43.744Z,74.00
2018-08-22T05:16:11.081Z,74.10
2018-08-22T05:18:38.449Z,73.90
2018-08-22T05:21:05.822Z,73.10
2018-08-22T05:23:33.168Z,73.10
2018-08-22T05:26:00.527Z,72.60
2018-08-22T05:28:27.874Z,72.80
2018-08-22T05:30:55.199Z,72.80
2018-08-22T05:33:22.518Z,72.50
2018-08-22T05:35:49.867Z,72.50
2018-08-22T05:38:17.546Z,72.50
2018-08-22T05:40:44.938Z,72.60
2018-08-22T05:43:12.245Z,72.80
2018-08-22T05:45:39.656Z,72.80
2018-08-22T05:48:07.038Z,72.40
2018-08-22T05:50:34.386Z,72.80
2018-08-22T05:53:01.703Z,72.80
2018-08-22T05:55:28.989Z,72.60
2018-08-22T05:57:56.397Z,72.10
2018-08-22T06:00:23.703Z,72.40
2018-08-22T06:02:51.046Z,71.80
2018-08-22T06:05:18.355Z,70.90
2018-08-22T06:07:45.662Z,70.40
2018-08-22T06:10:12.995Z,70.70
2018-08-22T06:12:40.302Z,70.30
2018-08-22T06:15:07.593Z,70.50
2018-08-22T06:17:34.923Z,69.90
2018-08-22T06:20:02.252Z,70.00
2018-08-22T06:22:29.599Z,69.70
2018-08-22T06:24:56.903Z,69.70
2018-08-22T06:27:24.217Z,69.70
2018-08-22T06:29:51.512Z,69.30
2018-08-22T06:32:18.843Z,69.30
2018-08-22T06:34:46.170Z,69.30
2018-08-22T06:37:13.486Z,68.90
2018-08-22T06:39:40.844Z,68.50
2018-08-22T06:42:08.163Z,68.80
2018-08-22T06:44:35.619Z,68.80
2018-08-22T06:47:02.913Z,68.70
2018-08-22T06:49:30.238Z,68.40
2018-08-22T06:51:57.590Z,68.00
2018-08-22T06:54:24.967Z,67.50
2018-08-22T06:56:52.245Z,67.20
2018-08-22T06:59:19.899Z,67.40
2018-08-22T07:01:47.221Z,67.70
2018-08-22T07:04:14.546Z,67.70
2018-08-22T07:06:42.082Z,67.40
2018-08-22T07:09:09.403Z,67.10
2018-08-22T07:11:36.789Z,66.90
2018-08-22T07:14:04.389Z,66.70
2018-08-22T07:16:31.694Z,65.80
2018-08-22T07:18:58.987Z,66.20
2018-08-22T07:21:26.298Z,66.20
2018-08-22T07:23:53.718Z,66.30
2018-08-22T07:26:21.031Z,65.80
2018-08-22T07:28:48.351Z,65.80
2018-08-22T07:31:15.798Z,65.70
2018-08-22T07:33:43.081Z,66.00
2018-08-22T07:36:10.400Z,65.20
2018-08-22T07:38:37.856Z,65.40
2018-08-22T07:41:05.183Z,65.20
2018-08-22T07:43:32.492Z,65.50
2018-08-22T07:45:59.801Z,65.00
2018-08-22T07:48:27.124Z,65.40
2018-08-22T07:50:54.529Z,64.70
2018-08-22T07:53:21.935Z,64.90
2018-08-22T07:55:49.226Z,64.90
2018-08-22T07:58:16.655Z,64.40
2018-08-22T08:00:44.005Z,64.00
2018-08-22T08:03:11.401Z,63.70
2018-08-22T08:05:38.758Z,63.40
2018-08-22T08:08:06.114Z,63.40
2018-08-22T08:10:33.497Z,62.90
2018-08-22T08:13:00.830Z,62.80
2018-08-22T08:15:28.134Z,62.50
2018-08-22T08:17:55.430Z,62.90
2018-08-22T08:20:22.753Z,62.60
2018-08-22T08:22:50.054Z,62.10
2018-08-22T08:25:17.402Z,62.40
2018-08-22T08:27:44.734Z,62.20
2018-08-22T08:30:12.038Z,61.90
2018-08-22T08:32:39.360Z,62.00
2018-08-22T08:35:06.675Z,61.80
2018-08-22T08:37:33.998Z,61.70
2018-08-22T08:40:01.289Z,61.90
2018-08-22T08:42:28.608Z,61.60
2018-08-22T08:44:55.946Z,60.30
2018-08-22T08:47:23.283Z,60.70
2018-08-22T08:49:50.587Z,61.10
2018-08-22T08:52:17.898Z,61.00
2018-08-22T08:54:45.231Z,60.60
2018-08-22T08:57:12.646Z,60.10
2018-08-22T08:59:39.830Z,59.60
2018-08-22T09:02:07.134Z,60.20
2018-08-22T09:04:34.459Z,60.10
2018-08-22T09:07:02.008Z,59.80
2018-08-22T09:09:29.332Z,59.50
2018-08-22T09:11:56.646Z,59.10
2018-08-22T09:14:23.961Z,59.20
2018-08-22T09:16:51.319Z,58.50
2018-08-22T09:19:18.730Z,58.80
2018-08-22T09:21:46.008Z,58.80
2018-08-22T09:24:13.353Z,58.60
2018-08-22T09:26:40.710Z,58.40
2018-08-22T09:29:08.016Z,58.00
2018-08-22T09:31:35.378Z,57.80
2018-08-22T09:34:02.677Z,57.30
2018-08-22T09:36:29.983Z,57.60
2018-08-22T09:38:57.319Z,60.50
2018-08-22T09:41:24.649Z,57.90
2018-08-22T09:43:51.937Z,58.30
2018-08-22T09:46:19.276Z,57.60
2018-08-22T09:48:46.569Z,58.60
2018-08-22T09:51:13.919Z,57.50
2018-08-22T09:53:41.215Z,57.20
2018-08-22T09:56:08.583Z,57.30
2018-08-22T09:58:35.921Z,57.20
2018-08-22T10:01:03.209Z,56.40
2018-08-22T10:03:40.582Z,56.70
2018-08-22T10:06:07.895Z,56.60
2018-08-22T10:08:35.294Z,56.70
2018-08-22T10:11:02.631Z,56.90
2018-08-22T10:13:29.937Z,56.60
2018-08-22T10:15:57.370Z,56.00
2018-08-22T10:18:31.491Z,55.70
2018-08-22T10:20:58.854Z,55.60
2018-08-22T10:23:26.243Z,55.90
2018-08-22T10:25:53.577Z,55.20
2018-08-22T10:28:20.890Z,56.00
2018-08-22T10:30:48.189Z,55.80
2018-08-22T10:33:15.494Z,55.90
2018-08-22T10:35:42.778Z,55.70
2018-08-22T10:38:10.102Z,55.30
2018-08-22T10:40:37.408Z,55.30
2018-08-22T10:43:04.866Z,54.40
2018-08-22T10:45:32.158Z,55.00
2018-08-22T10:47:59.547Z,54.80
2018-08-22T10:50:26.865Z,54.20
2018-08-22T10:52:54.328Z,53.80
2018-08-22T10:55:21.655Z,54.00
2018-08-22T10:57:49.139Z,54.00
2018-08-22T11:00:16.418Z,54.00
2018-08-22T11:02:43.742Z,54.10
2018-08-22T11:05:11.030Z,53.90
2018-08-22T11:07:38.555Z,53.20
2018-08-22T11:10:06.161Z,52.90
2018-08-22T11:12:33.399Z,53.20
2018-08-22T11:15:00.713Z,52.70
2018-08-22T11:17:28.041Z,52.50
2018-08-22T11:19:55.341Z,51.70
2018-08-22T11:22:34.290Z,52.10
2018-08-22T11:25:13.026Z,51.50
2018-08-22T11:27:51.845Z,52.30
2018-08-22T11:30:30.809Z,51.20
2018-08-22T11:33:09.767Z,50.60
2018-08-22T11:35:36.140Z,50.90
2018-08-22T11:38:03.614Z,51.20
2018-08-22T11:40:30.897Z,50.90
2018-08-22T11:42:58.220Z,50.50
2018-08-22T11:45:25.539Z,50.40
2018-08-22T11:47:52.866Z,50.30
2018-08-22T11:50:20.161Z,50.40
2018-08-22T11:52:47.603Z,50.30
2018-08-22T11:55:14.923Z,49.80
2018-08-22T11:57:42.228Z,49.40
2018-08-22T12:00:09.593Z,49.60
2018-08-22T12:02:36.931Z,49.60
2018-08-22T12:05:04.355Z,49.50
2018-08-22T12:07:31.670Z,49.70
2018-08-22T12:09:58.997Z,49.30
2018-08-22T12:12:26.300Z,49.40
2018-08-22T12:14:53.626Z,49.20
2018-08-22T12:17:20.941Z,49.80
2018-08-22T12:19:48.268Z,49.60
2018-08-22T12:22:15.585Z,49.80
2018-08-22T12:24:42.904Z,49.80
2018-08-22T12:27:10.273Z,49.60
2018-08-22T12:29:37.586Z,49.90
2018-08-22T12:32:04.937Z,49.60
2018-08-22T12:34:32.230Z,49.80
2018-08-22T12:36:59.559Z,49.60
2018-08-22T12:39:26.897Z,49.40
2018-08-22T12:41:54.178Z,49.40
2018-08-22T12:44:21.527Z,49.20
2018-08-22T12:46:48.806Z,48.90
2018-08-22T12:49:16.144Z,48.70
2018-08-22T12:51:43.466Z,48.60
2018-08-22T12:54:10.762Z,49.40
2018-08-22T12:56:38.086Z,49.50
2018-08-22T12:59:05.438Z,50.00
2018-08-22T13:01:32.746Z,49.60
2018-08-22T13:04:00.045Z,49.70
2018-08-22T13:06:27.359Z,49.70
2018-08-22T13:08:54.686Z,49.60
2018-08-22T13:11:22.026Z,49.60
2018-08-22T13:13:49.291Z,49.80
2018-08-22T13:16:17.126Z,49.50
2018-08-22T13:18:44.420Z,49.70
2018-08-22T13:21:11.744Z,49.20
2018-08-22T13:23:39.075Z,49.40
2018-08-22T13:26:06.479Z,49.30
2018-08-22T13:28:33.790Z,50.20
2018-08-22T13:31:01.096Z,49.30
2018-08-22T13:33:28.415Z,48.90
2018-08-22T13:35:55.716Z,48.60
2018-08-22T13:38:23.042Z,48.80
2018-08-22T13:40:50.328Z,48.70
2018-08-22T13:43:17.708Z,48.60
2018-08-22T13:45:45.005Z,48.20
2018-08-22T13:48:12.340Z,48.40
2018-08-22T13:50:39.699Z,48.30
2018-08-22T13:53:07.070Z,47.90
2018-08-22T13:55:34.350Z,48.00
2018-08-22T13:58:01.702Z,48.00
2018-08-22T14:00:29.011Z,47.70
2018-08-22T14:02:56.302Z,48.50
2018-08-22T14:05:23.649Z,49.10
2018-08-22T14:07:50.954Z,49.20
2018-08-22T14:10:18.330Z,48.40
2018-08-22T14:12:45.650Z,48.40
2018-08-22T14:15:13.015Z,47.40
2018-08-22T14:17:40.370Z,47.40
2018-08-22T14:20:07.726Z,47.40
2018-08-22T14:22:35.281Z,47.20
2018-08-22T14:25:02.718Z,47.10
2018-08-22T14:27:30.213Z,47.20
2018-08-22T14:29:57.536Z,47.20
2018-08-22T14:32:24.843Z,46.90
2018-08-22T14:34:52.170Z,46.50
2018-08-22T14:37:19.455Z,46.60
2018-08-22T14:39:47.073Z,46.70
2018-08-22T14:42:14.364Z,46.90
2018-08-22T14:44:41.683Z,47.20
2018-08-22T14:47:09.032Z,47.00
2018-08-22T14:49:36.332Z,46.90
2018-08-22T14:52:03.627Z,47.00
2018-08-22T14:54:30.925Z,47.40
2018-08-22T14:56:58.268Z,46.60
2018-08-22T14:59:25.600Z,46.20
2018-08-22T15:01:52.950Z,46.60
2018-08-22T15:04:20.301Z,46.50
2018-08-22T15:06:47.579Z,46.60
2018-08-22T15:09:14.938Z,46.80
2018-08-22T15:11:42.367Z,46.20
2018-08-22T15:14:09.704Z,46.30
2018-08-22T15:16:37.048Z,46.60
2018-08-22T15:19:04.687Z,46.40
2018-08-22T15:21:31.980Z,46.40
2018-08-22T15:23:59.277Z,46.20
2018-08-22T15:26:27.160Z,46.00
2018-08-22T15:28:54.497Z,45.60
2018-08-22T15:31:21.826Z,45.70
2018-08-22T15:33:49.146Z,45.80
2018-08-22T15:36:16.524Z,46.20
2018-08-22T15:38:43.837Z,46.60
2018-08-22T15:41:11.249Z,46.40
2018-08-22T15:43:38.566Z,45.80
2018-08-22T15:46:06.006Z,46.10
2018-08-22T15:48:33.329Z,45.40
2018-08-22T15:51:00.761Z,45.20
2018-08-22T15:53:28.161Z,45.20
2018-08-22T15:55:55.460Z,45.40
2018-08-22T15:58:22.773Z,46.40
2018-08-22T16:00:50.253Z,45.80
2018-08-22T16:03:17.561Z,46.30
2018-08-22T16:05:44.887Z,45.90
2018-08-22T16:08:12.437Z,45.60
2018-08-22T16:10:39.726Z,45.20
2018-08-22T16:13:09.890Z,45.70
2018-08-22T16:15:37.247Z,45.30
2018-08-22T16:18:06.622Z,45.50
2018-08-22T16:20:40.009Z,45.70
2018-08-22T16:23:07.358Z,45.70
2018-08-22T16:25:34.681Z,44.70
2018-08-22T16:28:02.042Z,44.20
2018-08-22T16:30:29.631Z,44.30
2018-08-22T16:35:30.786Z,42.60
2018-08-22T16:38:03.221Z,42.80
2018-08-22T16:40:30.490Z,43.30
2018-08-22T16:42:57.802Z,43.40
2018-08-22T16:45:25.106Z,42.60
2018-08-22T16:47:52.435Z,42.30
2018-08-22T16:50:20.226Z,42.30
2018-08-22T16:52:47.561Z,42.40
2018-08-22T16:55:18.497Z,43.50
2018-08-22T16:57:45.801Z,43.00
2018-08-22T17:00:13.103Z,43.10
2018-08-22T17:02:40.410Z,43.60
2018-08-22T17:05:07.736Z,43.70
2018-08-22T17:07:35.153Z,43.40
2018-08-22T17:10:03.067Z,43.60
2018-08-22T17:12:39.015Z,44.20
2018-08-22T17:15:06.654Z,45.30
2018-08-22T17:17:33.954Z,45.80
2018-08-22T17:20:01.264Z,46.80
2018-08-22T17:22:28.574Z,46.60
2018-08-22T17:24:55.935Z,45.30
2018-08-22T17:27:23.280Z,45.10
2018-08-22T17:29:50.607Z,45.40
2018-08-22T17:32:17.916Z,45.90
2018-08-22T17:34:45.232Z,47.20
2018-08-22T17:37:12.583Z,47.10
2018-08-22T17:39:40.038Z,47.60
2018-08-22T17:42:07.406Z,47.30
2018-08-22T17:44:34.716Z,45.40
2018-08-22T17:47:02.002Z,45.10
2018-08-22T17:49:29.322Z,45.10
2018-08-22T17:51:57.316Z,45.30
2018-08-22T17:54:24.644Z,45.40
2018-08-22T17:57:03.298Z,45.50
2018-08-22T17:59:30.616Z,45.20
2018-08-22T18:01:58.701Z,45.60
2018-08-22T18:04:26.170Z,45.50
2018-08-22T18:06:53.488Z,45.70
2018-08-22T18:09:20.793Z,46.00
2018-08-22T18:11:48.124Z,47.30
2018-08-22T18:14:15.449Z,47.90
2018-08-22T18:16:43.022Z,48.40
2018-08-22T18:19:19.147Z,49.40
2018-08-22T18:21:46.418Z,49.90
2018-08-22T18:24:13.783Z,51.10
2018-08-22T18:26:41.082Z,50.30
2018-08-22T18:29:08.414Z,51.00
2018-08-22T18:31:35.760Z,50.20
2018-08-22T18:34:03.271Z,50.30
2018-08-22T18:36:30.606Z,51.10
2018-08-22T18:39:01.851Z,51.00
2018-08-22T18:41:29.158Z,51.80
2018-08-22T18:43:56.514Z,51.50
2018-08-22T18:46:24.986Z,52.00
2018-08-22T18:48:52.579Z,52.50
2018-08-22T18:51:19.945Z,52.90
2018-08-22T18:53:47.288Z,53.20
2018-08-22T18:56:15.176Z,53.00
2018-08-22T18:58:42.480Z,53.30
2018-08-22T19:01:09.826Z,53.80
2018-08-22T19:03:37.188Z,53.70
2018-08-22T19:06:04.678Z,54.20
2018-08-22T19:08:35.375Z,54.30
2018-08-22T19:11:02.785Z,54.60
2018-08-22T19:13:30.032Z,55.40
2018-08-22T19:15:57.349Z,55.70
2018-08-22T19:18:24.658Z,55.50
2018-08-22T19:20:53.724Z,55.50
2018-08-22T19:23:21.159Z,55.70
2018-08-22T19:25:48.528Z,56.50
2018-08-22T19:28:15.850Z,56.20
2018-08-22T19:30:43.151Z,56.20
2018-08-22T19:33:11.485Z,56.00
2018-08-22T19:35:38.796Z,56.30
2018-08-22T19:38:06.151Z,57.10
2018-08-22T19:40:33.589Z,56.40
2018-08-22T19:43:00.887Z,56.50
2018-08-22T19:45:28.196Z,56.90
2018-08-22T19:47:55.499Z,56.50
2018-08-22T19:50:22.819Z,56.60
2018-08-22T19:52:50.169Z,56.10
2018-08-22T19:55:17.487Z,56.10
2018-08-22T19:57:44.861Z,56.90
2018-08-22T20:00:12.248Z,57.00
2018-08-22T20:02:39.569Z,56.70
2018-08-22T20:05:07.849Z,56.90
2018-08-22T20:07:35.264Z,57.00
2018-08-22T20:10:03.050Z,56.80
2018-08-22T20:12:42.844Z,57.50
2018-08-22T20:15:10.165Z,56.80
2018-08-22T20:17:37.517Z,56.90
2018-08-22T20:20:05.845Z,57.00
2018-08-22T20:22:33.186Z,57.20
2018-08-22T20:25:00.519Z,57.60
2018-08-22T20:27:27.859Z,57.80
2018-08-22T20:29:55.229Z,56.50
2018-08-22T20:32:22.534Z,56.90
2018-08-22T20:34:49.838Z,57.60
2018-08-22T20:37:17.508Z,57.20
2018-08-22T20:39:45.114Z,56.80
2018-08-22T20:42:12.553Z,57.10
2018-08-22T20:44:40.100Z,57.40
2018-08-22T20:47:07.516Z,57.70
2018-08-22T20:49:34.825Z,57.80
2018-08-22T20:52:02.199Z,57.90
2018-08-22T20:54:29.532Z,58.10
2018-08-22T20:56:56.894Z,58.30
2018-08-22T20:59:24.241Z,58.40
2018-08-22T21:01:51.620Z,58.60
2018-08-22T21:04:18.966Z,58.90
2018-08-22T21:06:46.453Z,59.30
2018-08-22T21:09:13.864Z,58.80
2018-08-22T21:11:41.904Z,58.90
2018-08-22T21:14:09.271Z,58.90
2018-08-22T21:16:36.640Z,59.10
2018-08-22T21:19:04.216Z,59.10
2018-08-22T21:21:31.561Z,59.20
2018-08-22T21:23:58.951Z,59.30
2018-08-22T21:26:34.252Z,59.20
2018-08-22T21:29:01.677Z,59.30
2018-08-22T21:31:29.010Z,59.30
2018-08-22T21:33:56.382Z,59.40
2018-08-22T21:36:23.748Z,59.90
2018-08-22T21:38:51.088Z,60.00
2018-08-22T21:41:18.413Z,59.70
2018-08-22T21:43:45.764Z,59.90
2018-08-22T21:46:13.088Z,60.20
2018-08-22T21:48:41.395Z,60.40
2018-08-22T21:51:09.140Z,60.30
2018-08-22T21:53:36.894Z,60.50
2018-08-22T21:56:04.244Z,60.50
2018-08-22T21:58:31.585Z,60.50
2018-08-22T22:00:58.952Z,60.60
2018-08-22T22:03:26.255Z,60.60
2018-08-22T22:05:53.579Z,60.50
2018-08-22T22:08:21.036Z,60.70
2018-08-22T22:13:32.891Z,60.90
2018-08-22T22:16:01.257Z,61.00
2018-08-22T22:18:28.574Z,61.10
2018-08-22T22:21:06.788Z,61.20
2018-08-22T22:23:35.482Z,61.50
2018-08-22T22:26:02.823Z,61.80
2018-08-22T22:28:30.155Z,62.00
2018-08-22T22:30:57.473Z,62.00
2018-08-22T22:33:24.808Z,62.40
2018-08-22T22:35:52.540Z,62.40
2018-08-22T22:38:19.856Z,62.60
2018-08-22T22:40:47.212Z,62.70
2018-08-22T22:43:14.511Z,62.60
2018-08-22T22:45:41.832Z,62.50
2018-08-22T22:48:09.148Z,62.50
2018-08-22T22:50:36.477Z,62.60
2018-08-22T22:53:03.806Z,62.80
2018-08-22T22:55:31.273Z,62.90
2018-08-22T22:57:58.576Z,62.90
2018-08-22T23:00:28.215Z,63.20
2018-08-22T23:02:55.559Z,63.40
2018-08-22T23:05:22.878Z,63.20
2018-08-22T23:07:50.182Z,63.30
2018-08-22T23:10:17.510Z,63.30
2018-08-22T23:12:44.857Z,63.40
2018-08-22T23:15:13.301Z,63.60
2018-08-22T23:17:40.598Z,63.60
2018-08-22T23:20:14.282Z,63.80
2018-08-22T23:22:41.596Z,63.80
2018-08-22T23:25:08.920Z,63.50
2018-08-22T23:27:36.264Z,63.60
2018-08-22T23:30:03.723Z,63.50
2018-08-22T23:32:31.028Z,63.70
2018-08-22T23:35:08.560Z,63.80
2018-08-22T23:37:35.891Z,63.80
2018-08-22T23:40:03.199Z,63.80
2018-08-22T23:42:30.508Z,64.10
2018-08-22T23:44:57.844Z,64.40
2018-08-22T23:47:25.180Z,64.20
2018-08-22T23:49:52.530Z,64.20
2018-08-22T23:52:19.819Z,64.00
2018-08-22T23:54:47.195Z,64.40
2018-08-22T23:57:18.906Z,64.40
2018-08-22T23:59:46.216Z,64.60
